Time;durP1;ratioP1;P1;durP2;ratioP2;P2;SDS_P1;SDS_P2;PMS_P1;PMS_P2;Temp;Humidity;BMP_temperature;BMP_pressure;BME280_temperature;BME280_humidity;BME280_pressure;Samples;Min_cycle;Max_cycle;Signal;HPM_P1;HPM_P2
2022/04/05 00:01:47;;;;;;;6.37;3.13;;;12.00;99.90;;;;;;4850553;29;20474;-60
2022/04/05 00:04:19;;;;;;;5.77;2.37;;;12.00;99.90;;;;;;4844675;29;20467;-59
2022/04/05 00:06:50;;;;;;;6.53;2.90;;;11.70;99.90;;;;;;4839612;29;20563;-60
2022/04/05 00:09:21;;;;;;;6.63;2.03;;;11.60;99.90;;;;;;4849322;29;20466;-59
2022/04/05 00:11:52;;;;;;;5.40;1.90;;;11.40;99.90;;;;;;4851749;29;20531;-60
2022/04/05 00:14:23;;;;;;;3.20;1.40;;;11.00;99.90;;;;;;4848059;29;20466;-59
2022/04/05 00:16:54;;;;;;;5.70;2.10;;;11.00;99.90;;;;;;4849213;29;20469;-60
2022/04/05 00:19:27;;;;;;;4.60;1.43;;;11.10;99.90;;;;;;4847992;29;20454;-59
2022/04/05 00:21:57;;;;;;;3.53;1.87;;;11.20;99.90;;;;;;4845187;29;20474;-58
2022/04/05 00:24:28;;;;;;;5.30;1.83;;;11.10;99.90;;;;;;4850530;29;20470;-60
2022/04/05 00:26:59;;;;;;;7.93;2.70;;;10.90;99.90;;;;;;4848143;29;20455;-58
2022/04/05 00:29:30;;;;;;;5.07;2.33;;;10.80;99.90;;;;;;4846423;29;20873;-58
2022/04/05 00:32:01;;;;;;;8.97;2.40;;;10.80;99.90;;;;;;4842164;29;20628;-58
2022/04/05 00:34:33;;;;;;;12.77;3.33;;;10.80;99.90;;;;;;4843371;29;20470;-58
2022/04/05 00:37:04;;;;;;;5.20;2.23;;;10.70;99.90;;;;;;4838729;29;20467;-60
2022/04/05 00:39:36;;;;;;;6.40;2.77;;;10.70;99.90;;;;;;4846641;29;20537;-59
2022/04/05 00:42:09;;;;;;;8.40;2.87;;;10.90;99.90;;;;;;4834554;29;20486;-59
2022/04/05 00:44:40;;;;;;;8.93;3.33;;;10.90;99.90;;;;;;4837390;29;21011;-60
2022/04/05 00:47:18;;;;;;;6.60;2.80;;;11.00;99.90;;;;;;4845235;29;20501;-59
2022/04/05 00:49:55;;;;;;;6.47;2.20;;;10.80;99.90;;;;;;4838987;29;20491;-60
2022/04/05 00:52:27;;;;;;;7.83;2.30;;;10.60;99.90;;;;;;4838257;29;20501;-60
2022/04/05 00:55:00;;;;;;;8.67;2.63;;;10.60;99.90;;;;;;4839004;29;20458;-59
2022/04/05 00:57:34;;;;;;;3.50;2.43;;;10.40;99.90;;;;;;4838964;29;20459;-59
2022/04/05 01:00:08;;;;;;;7.38;3.03;;;10.30;99.90;;;;;;4837214;29;20463;-60
2022/04/05 01:02:40;;;;;;;4.77;2.37;;;10.10;99.90;;;;;;4841300;29;20201;-59
2022/04/05 01:05:14;;;;;;;3.40;1.43;;;9.80;99.90;;;;;;4837540;29;21055;-59
2022/04/05 01:07:48;;;;;;;3.67;1.40;;;9.60;99.90;;;;;;4837680;29;20512;-62
2022/04/05 01:10:19;;;;;;;4.78;1.30;;;9.30;99.90;;;;;;4836797;29;20515;-61
2022/04/05 01:12:50;;;;;;;1.25;0.95;;;8.90;99.90;;;;;;4837139;29;20266;-62
2022/04/05 01:15:20;;;;;;;2.05;1.20;;;8.50;99.90;;;;;;4840027;29;20220;-62
2022/04/05 01:17:52;;;;;;;2.47;0.70;;;8.30;99.90;;;;;;4837577;29;20214;-62
2022/04/05 01:20:25;;;;;;;1.95;0.77;;;7.90;99.90;;;;;;4845749;29;20209;-63
2022/04/05 01:22:57;;;;;;;3.67;0.90;;;7.70;99.90;;;;;;4845234;29;20210;-58
2022/04/05 01:25:31;;;;;;;1.40;0.70;;;7.60;99.90;;;;;;4844759;29;20229;-60
2022/04/05 01:28:05;;;;;;;2.30;1.50;;;7.70;99.90;;;;;;4843976;29;20694;-68
2022/04/05 01:30:36;;;;;;;2.15;0.90;;;7.80;99.90;;;;;;4841252;29;20217;-66
2022/04/05 01:33:07;;;;;;;5.00;1.48;;;8.00;99.90;;;;;;4837767;29;20237;-59
2022/04/05 01:35:39;;;;;;;2.20;1.00;;;8.20;99.90;;;;;;4840721;29;20228;-60
2022/04/05 01:38:12;;;;;;;3.28;1.20;;;8.30;99.90;;;;;;4841231;29;20657;-59
2022/04/05 01:40:50;;;;;;;2.95;1.42;;;8.40;99.90;;;;;;4838954;29;20212;-60
2022/04/05 01:43:22;;;;;;;2.10;1.60;;;8.40;99.90;;;;;;4846269;29;20207;-59
2022/04/05 01:45:53;;;;;;;4.18;2.13;;;8.50;99.90;;;;;;4849085;29;20581;-60
2022/04/05 01:48:24;;;;;;;2.10;1.30;;;8.40;99.90;;;;;;4849166;29;20205;-60
2022/04/05 01:50:55;;;;;;;2.83;1.55;;;8.30;99.90;;;;;;4851220;29;20209;-60
2022/04/05 01:53:26;;;;;;;11.00;2.22;;;8.30;99.90;;;;;;4847642;29;20229;-60
2022/04/05 01:55:58;;;;;;;3.30;1.63;;;8.20;99.90;;;;;;4843519;29;20311;-59
2022/04/05 01:58:29;;;;;;;3.63;1.38;;;8.20;99.90;;;;;;4839643;29;20205;-60
2022/04/05 02:01:02;;;;;;;4.95;2.40;;;8.20;99.90;;;;;;4846748;29;20220;-59
2022/04/05 02:03:34;;;;;;;4.53;1.58;;;8.10;99.90;;;;;;4841646;29;20638;-59
2022/04/05 02:06:05;;;;;;;6.80;2.25;;;8.10;99.90;;;;;;4848708;29;20379;-59
2022/04/05 02:08:38;;;;;;;5.60;2.05;;;8.00;99.90;;;;;;4840084;29;20216;-60
2022/04/05 02:11:13;;;;;;;7.80;2.70;;;8.00;99.90;;;;;;4847934;29;20208;-60
2022/04/05 02:13:44;;;;;;;4.70;1.77;;;7.90;99.90;;;;;;4843421;29;20223;-61
2022/04/05 02:16:15;;;;;;;6.10;2.58;;;7.90;99.90;;;;;;4846929;29;20205;-60
2022/04/05 02:18:46;;;;;;;5.82;2.83;;;7.80;99.90;;;;;;4847770;29;20274;-60
2022/04/05 02:21:17;;;;;;;9.65;2.10;;;7.80;99.90;;;;;;4836798;29;20219;-60
2022/04/05 02:23:49;;;;;;;4.78;2.10;;;7.80;99.90;;;;;;4842069;29;20209;-60
2022/04/05 02:26:22;;;;;;;5.28;2.15;;;7.70;99.90;;;;;;4847395;29;20198;-60
2022/04/05 02:28:52;;;;;;;2.97;1.80;;;7.70;99.90;;;;;;4837143;29;20201;-60
2022/04/05 02:31:23;;;;;;;3.92;1.50;;;7.70;99.90;;;;;;4836811;29;20222;-59
2022/04/05 02:33:54;;;;;;;5.57;2.00;;;7.70;99.90;;;;;;4837436;29;20230;-60
2022/04/05 02:36:25;;;;;;;4.30;1.60;;;7.60;99.90;;;;;;4837589;29;20213;-60
2022/04/05 02:38:56;;;;;;;6.93;1.88;;;7.60;99.90;;;;;;4835789;29;20243;-60
2022/04/05 02:41:29;;;;;;;4.90;1.70;;;7.70;99.90;;;;;;4836200;29;20312;-63
2022/04/05 02:44:00;;;;;;;3.17;2.05;;;7.80;99.90;;;;;;4836751;29;20244;-58
2022/04/05 02:46:31;;;;;;;7.35;1.95;;;7.80;99.90;;;;;;4838004;29;20861;-60
2022/04/05 02:49:02;;;;;;;4.97;2.33;;;7.90;99.90;;;;;;4836565;29;20223;-59
2022/04/05 02:51:33;;;;;;;6.60;2.63;;;7.90;99.90;;;;;;4836330;29;20331;-60
2022/04/05 02:54:04;;;;;;;5.80;2.05;;;7.90;99.90;;;;;;4841675;29;20664;-60
2022/04/05 02:56:36;;;;;;;6.05;2.28;;;7.90;99.90;;;;;;4852684;29;20228;-60
2022/04/05 02:59:07;;;;;;;5.88;2.35;;;7.90;99.90;;;;;;4852733;29;20201;-60
2022/04/05 03:01:38;;;;;;;6.55;2.35;;;7.90;99.90;;;;;;4850867;29;20214;-59
2022/04/05 03:04:08;;;;;;;6.72;2.50;;;7.90;99.90;;;;;;4848384;29;20265;-60
2022/04/05 03:06:39;;;;;;;5.45;2.60;;;7.90;99.90;;;;;;4853101;29;20237;-61
2022/04/05 03:09:10;;;;;;;5.22;2.35;;;7.90;99.90;;;;;;4848770;29;20213;-60
2022/04/05 03:11:43;;;;;;;6.20;2.28;;;8.00;99.90;;;;;;4851066;29;20209;-60
2022/04/05 03:14:14;;;;;;;5.93;2.60;;;8.00;99.90;;;;;;4848398;29;20352;-59
2022/04/05 03:16:44;;;;;;;8.30;2.70;;;7.90;99.90;;;;;;4847677;29;20220;-58
2022/04/05 03:19:15;;;;;;;8.73;2.38;;;7.90;99.90;;;;;;4848082;29;20205;-59
2022/04/05 03:21:46;;;;;;;7.82;2.28;;;7.90;99.90;;;;;;4845284;29;20216;-59
2022/04/05 03:24:17;;;;;;;5.50;2.30;;;7.80;99.90;;;;;;4850976;29;20207;-60
2022/04/05 03:26:50;;;;;;;9.18;3.25;;;7.80;99.90;;;;;;4846565;29;20233;-58
2022/04/05 03:29:26;;;;;;;4.93;2.97;;;7.70;99.90;;;;;;4849993;29;20296;-59
2022/04/05 03:31:57;;;;;;;4.50;2.00;;;7.70;99.90;;;;;;4852475;29;20209;-59
2022/04/05 03:34:28;;;;;;;5.72;2.13;;;7.60;99.90;;;;;;4852227;29;20326;-59
2022/04/05 03:36:59;;;;;;;5.32;2.53;;;7.60;99.90;;;;;;4851092;29;20209;-59
2022/04/05 03:39:30;;;;;;;6.18;2.30;;;7.60;99.90;;;;;;4841456;29;20241;-58
2022/04/05 03:42:02;;;;;;;5.40;2.20;;;7.60;99.90;;;;;;4850454;29;20615;-60
2022/04/05 03:44:33;;;;;;;6.55;3.92;;;7.60;99.90;;;;;;4849561;29;20583;-60
2022/04/05 03:47:04;;;;;;;5.90;2.50;;;7.60;99.90;;;;;;4847707;29;20627;-59
2022/04/05 03:49:35;;;;;;;6.80;2.60;;;7.50;99.90;;;;;;4845018;29;20281;-57
2022/04/05 03:52:07;;;;;;;4.63;2.83;;;7.50;99.90;;;;;;4847026;29;20644;-59
2022/04/05 03:54:37;;;;;;;5.47;2.53;;;7.50;99.90;;;;;;4849306;29;20232;-57
2022/04/05 03:57:11;;;;;;;6.38;2.72;;;7.40;99.90;;;;;;4839806;29;20304;-59
2022/04/05 03:59:50;;;;;;;4.82;2.40;;;7.40;99.90;;;;;;4845839;29;20295;-59
2022/04/05 04:02:21;;;;;;;7.78;2.05;;;7.30;99.90;;;;;;4850418;29;20205;-59
2022/04/05 04:04:58;;;;;;;6.40;3.10;;;7.20;99.90;;;;;;4843834;29;20220;-59
2022/04/05 04:07:29;;;;;;;7.68;2.40;;;7.20;99.90;;;;;;4845475;29;20233;-59
2022/04/05 04:10:04;;;;;;;5.25;2.50;;;7.20;99.90;;;;;;4851431;29;20198;-59
2022/04/05 04:12:36;;;;;;;4.28;2.15;;;7.10;99.90;;;;;;4842801;29;20219;-59
2022/04/05 04:15:09;;;;;;;7.13;2.20;;;7.00;99.90;;;;;;4846676;29;20210;-58
2022/04/05 04:17:40;;;;;;;7.25;2.55;;;7.00;99.90;;;;;;4845537;29;20233;-59
2022/04/05 04:20:12;;;;;;;6.88;2.25;;;7.00;99.90;;;;;;4840604;29;20232;-59
2022/04/05 04:22:42;;;;;;;5.65;2.63;;;7.00;99.90;;;;;;4846001;29;20206;-60
2022/04/05 04:25:13;;;;;;;5.70;3.10;;;7.00;99.90;;;;;;4846045;29;20205;-59
2022/04/05 04:27:46;;;;;;;6.57;3.20;;;7.00;99.90;;;;;;4846072;29;20203;-60
2022/04/05 04:30:16;;;;;;;6.93;3.08;;;6.90;99.90;;;;;;4846790;29;20213;-58
2022/04/05 04:32:47;;;;;;;8.30;2.50;;;6.90;99.90;;;;;;4843068;29;20205;-59
2022/04/05 04:35:18;;;;;;;7.43;2.63;;;6.90;99.90;;;;;;4853005;29;20213;-60
2022/04/05 04:37:49;;;;;;;7.35;3.08;;;6.90;99.90;;;;;;4844686;29;20205;-59
2022/04/05 04:40:20;;;;;;;4.90;2.15;;;6.80;99.90;;;;;;4850221;29;20204;-59
2022/04/05 04:42:52;;;;;;;8.15;3.10;;;6.80;99.90;;;;;;4852230;29;20197;-58
2022/04/05 04:45:26;;;;;;;4.22;2.45;;;6.80;99.90;;;;;;4851381;29;20217;-60
2022/04/05 04:47:57;;;;;;;5.82;2.55;;;6.70;99.90;;;;;;4841095;29;20232;-57
2022/04/05 04:50:28;;;;;;;7.32;2.92;;;6.60;99.90;;;;;;4851992;29;20206;-60
2022/04/05 04:52:58;;;;;;;5.72;2.75;;;6.60;99.90;;;;;;4850827;29;20237;-56
2022/04/05 04:55:29;;;;;;;7.75;2.97;;;6.50;99.90;;;;;;4841198;29;20276;-60
2022/04/05 04:58:22;;;;;;;4.45;2.38;;;6.50;99.90;;;;;;4849377;29;20226;-59
2022/04/05 05:00:52;;;;;;;6.22;2.42;;;6.40;99.90;;;;;;4851491;29;20276;-60
2022/04/05 05:03:23;;;;;;;8.88;2.90;;;6.30;99.90;;;;;;4851507;29;20250;-59
2022/04/05 05:05:55;;;;;;;7.25;2.15;;;6.30;99.90;;;;;;4838931;29;20210;-59
2022/04/05 05:08:26;;;;;;;8.05;2.33;;;6.20;99.90;;;;;;4849543;29;20545;-59
2022/04/05 05:10:57;;;;;;;6.00;1.98;;;6.20;99.90;;;;;;4834571;29;20606;-59
2022/04/05 05:13:31;;;;;;;3.92;1.70;;;6.20;99.90;;;;;;4842590;29;20219;-59
2022/04/05 05:16:02;;;;;;;7.18;2.25;;;6.10;99.90;;;;;;4848105;29;20216;-59
2022/04/05 05:18:33;;;;;;;7.20;2.22;;;6.10;99.90;;;;;;4850833;29;20523;-59
2022/04/05 05:21:06;;;;;;;6.85;2.00;;;6.10;99.90;;;;;;4846991;29;20290;-58
2022/04/05 05:23:37;;;;;;;5.28;2.55;;;6.10;99.90;;;;;;4838102;29;20223;-59
2022/04/05 05:26:08;;;;;;;3.85;2.30;;;6.00;99.90;;;;;;4839887;29;20217;-59
2022/04/05 05:28:40;;;;;;;7.15;1.88;;;5.90;99.90;;;;;;4847850;29;20209;-59
2022/04/05 05:31:11;;;;;;;6.93;2.00;;;5.90;99.90;;;;;;4848865;29;20202;-60
2022/04/05 05:33:42;;;;;;;4.40;2.20;;;5.80;99.90;;;;;;4850533;29;20332;-59
2022/04/05 05:36:12;;;;;;;4.35;2.13;;;5.80;99.90;;;;;;4851079;29;20209;-58
2022/04/05 05:38:43;;;;;;;3.20;2.33;;;5.80;99.90;;;;;;4842875;29;20307;-58
2022/04/05 05:41:14;;;;;;;6.80;2.00;;;5.80;99.90;;;;;;4850986;29;20213;-59
2022/04/05 05:43:46;;;;;;;9.70;2.63;;;5.70;99.90;;;;;;4850802;29;20236;-57
2022/04/05 05:46:17;;;;;;;3.92;2.20;;;5.70;99.90;;;;;;4842337;29;20663;-59
2022/04/05 05:48:48;;;;;;;4.47;2.03;;;5.70;99.90;;;;;;4845985;29;20205;-58
2022/04/05 05:51:19;;;;;;;4.07;2.45;;;5.70;99.90;;;;;;4850644;29;20224;-59
2022/04/05 05:53:50;;;;;;;10.00;1.73;;;5.80;99.90;;;;;;4839453;29;20225;-59
2022/04/05 05:56:21;;;;;;;1.70;1.60;;;5.80;99.90;;;;;;4841290;29;20282;-59
2022/04/05 05:58:53;;;;;;;6.55;2.45;;;5.80;99.90;;;;;;4845954;29;20205;-59
2022/04/05 06:01:25;;;;;;;6.65;1.67;;;5.90;99.90;;;;;;4848438;29;20218;-57
2022/04/05 06:03:56;;;;;;;3.22;1.60;;;5.90;99.90;;;;;;4836570;29;20258;-58
2022/04/05 06:06:28;;;;;;;4.25;1.70;;;6.00;99.90;;;;;;4842220;29;20244;-58
2022/04/05 06:08:59;;;;;;;4.55;2.28;;;6.10;99.90;;;;;;4846873;29;20206;-59
2022/04/05 06:11:30;;;;;;;4.10;2.00;;;6.10;99.90;;;;;;4845487;29;20213;-59
2022/04/05 06:14:02;;;;;;;6.25;1.85;;;6.20;99.90;;;;;;4838863;29;20225;-59
2022/04/05 06:16:33;;;;;;;7.13;2.00;;;6.30;99.90;;;;;;4850510;29;20264;-59
2022/04/05 06:19:04;;;;;;;12.15;2.20;;;6.30;99.90;;;;;;4845132;29;20210;-59
2022/04/05 06:21:35;;;;;;;5.53;2.38;;;6.30;99.90;;;;;;4849121;29;20232;-59
2022/04/05 06:24:06;;;;;;;3.95;2.28;;;6.40;99.90;;;;;;4849129;29;20289;-59
2022/04/05 06:26:37;;;;;;;4.47;1.80;;;6.40;99.90;;;;;;4849315;29;20218;-58
2022/04/05 06:29:10;;;;;;;5.13;1.83;;;6.40;99.90;;;;;;4848924;29;20218;-59
2022/04/05 06:31:40;;;;;;;7.30;2.55;;;6.40;99.90;;;;;;4849594;29;20227;-58
2022/04/05 06:34:11;;;;;;;5.30;2.22;;;6.40;99.90;;;;;;4848689;29;20327;-59
2022/04/05 06:36:42;;;;;;;7.82;3.17;;;6.30;99.90;;;;;;4848851;29;20222;-59
2022/04/05 06:39:13;;;;;;;8.40;2.00;;;6.30;99.90;;;;;;4849667;29;20209;-59
2022/04/05 06:41:44;;;;;;;5.57;2.33;;;6.10;99.90;;;;;;4851053;29;20193;-57
2022/04/05 06:44:16;;;;;;;6.38;2.33;;;6.10;99.90;;;;;;4849599;29;20319;-58
2022/04/05 06:46:47;;;;;;;5.13;2.03;;;6.00;99.90;;;;;;4849210;29;20210;-58
2022/04/05 06:49:18;;;;;;;8.02;2.63;;;6.00;99.90;;;;;;4844091;29;20210;-59
2022/04/05 06:51:49;;;;;;;5.68;4.47;;;6.00;99.90;;;;;;4841018;29;20311;-58
2022/04/05 06:54:19;;;;;;;8.60;2.50;;;6.00;99.90;;;;;;4846589;29;20237;-59
2022/04/05 06:56:50;;;;;;;6.40;2.28;;;6.00;99.90;;;;;;4847390;29;20210;-59
2022/04/05 06:59:23;;;;;;;10.93;3.85;;;6.00;99.90;;;;;;4843605;29;20236;-59
2022/04/05 07:01:53;;;;;;;4.72;1.85;;;6.00;99.90;;;;;;4837869;29;20552;-56
2022/04/05 07:04:24;;;;;;;5.53;2.30;;;6.10;99.90;;;;;;4847490;29;20315;-59
2022/04/05 07:06:55;;;;;;;5.63;2.72;;;6.20;99.90;;;;;;4837771;29;20262;-58
2022/04/05 07:09:27;;;;;;;6.18;2.40;;;6.20;99.90;;;;;;4850091;29;20214;-58
2022/04/05 07:12:03;;;;;;;4.40;2.05;;;6.20;99.90;;;;;;4846755;29;20197;-59
2022/04/05 07:14:35;;;;;;;5.50;2.50;;;6.20;99.90;;;;;;4849819;29;20573;-57
2022/04/05 07:17:08;;;;;;;4.20;2.28;;;6.20;99.90;;;;;;4841866;29;20285;-59
2022/04/05 07:19:38;;;;;;;8.95;3.28;;;6.20;99.90;;;;;;4847826;29;20300;-57
2022/04/05 07:22:09;;;;;;;4.47;1.95;;;6.20;99.90;;;;;;4850337;29;20210;-59
2022/04/05 07:24:40;;;;;;;9.52;2.90;;;6.10;99.90;;;;;;4848886;29;20282;-56
2022/04/05 07:27:11;;;;;;;4.45;2.08;;;6.00;99.90;;;;;;4838631;29;20312;-57
2022/04/05 07:29:43;;;;;;;4.90;2.00;;;6.00;99.90;;;;;;4848474;29;20217;-59
2022/04/05 07:32:14;;;;;;;6.90;2.20;;;5.90;99.90;;;;;;4847726;29;20214;-58
2022/04/05 07:34:45;;;;;;;6.78;2.00;;;5.80;99.90;;;;;;4839224;29;20289;-57
2022/04/05 07:37:15;;;;;;;3.95;2.13;;;5.70;99.90;;;;;;4849789;29;20225;-59
2022/04/05 07:39:46;;;;;;;4.68;2.47;;;5.70;99.90;;;;;;4844435;29;20221;-59
2022/04/05 07:42:17;;;;;;;4.00;2.25;;;5.70;99.90;;;;;;4852948;29;20224;-58
2022/04/05 07:44:49;;;;;;;7.68;3.47;;;5.60;99.90;;;;;;4853596;29;20323;-58
2022/04/05 07:47:20;;;;;;;4.78;2.00;;;5.60;99.90;;;;;;4851926;29;20209;-58
2022/04/05 07:49:51;;;;;;;5.30;1.88;;;5.60;99.90;;;;;;4844160;29;20216;-58
2022/04/05 07:52:22;;;;;;;6.40;2.42;;;5.50;99.90;;;;;;4844027;29;20335;-57
2022/04/05 07:54:53;;;;;;;4.50;1.90;;;5.50;99.90;;;;;;4853445;29;20221;-58
2022/04/05 07:57:23;;;;;;;4.95;1.90;;;5.50;99.90;;;;;;4839527;29;20209;-58
2022/04/05 07:59:58;;;;;;;7.93;2.45;;;5.40;99.90;;;;;;4840532;29;20214;-57
2022/04/05 08:02:29;;;;;;;5.43;1.80;;;5.40;99.90;;;;;;4849978;29;20208;-56
2022/04/05 08:05:12;;;;;;;4.78;2.10;;;5.40;99.90;;;;;;4849048;29;20674;-57
2022/04/05 08:07:43;;;;;;;6.70;2.10;;;5.30;99.90;;;;;;4844160;29;20233;-57
2022/04/05 08:10:14;;;;;;;5.53;2.85;;;5.30;99.90;;;;;;4852754;29;20206;-58
2022/04/05 08:12:47;;;;;;;9.77;2.17;;;5.30;99.90;;;;;;4852678;29;20213;-59
2022/04/05 08:15:20;;;;;;;8.10;2.33;;;5.30;99.90;;;;;;4852454;29;20237;-58
2022/04/05 08:17:51;;;;;;;6.45;2.00;;;5.20;99.90;;;;;;4844625;29;20229;-58
2022/04/05 08:20:23;;;;;;;8.10;2.38;;;5.10;99.90;;;;;;4847361;29;20209;-56
2022/04/05 08:22:53;;;;;;;2.45;1.60;;;5.10;99.90;;;;;;4851245;29;20222;-57
2022/04/05 08:25:24;;;;;;;5.70;2.90;;;5.00;99.90;;;;;;4852789;29;20202;-58
2022/04/05 08:27:55;;;;;;;8.23;2.50;;;5.00;99.90;;;;;;4851581;29;20214;-59
2022/04/05 08:30:28;;;;;;;7.55;2.60;;;5.00;99.90;;;;;;4845977;29;20209;-59
2022/04/05 08:32:59;;;;;;;4.10;2.95;;;5.10;99.90;;;;;;4842903;29;20682;-56
2022/04/05 08:35:32;;;;;;;6.68;3.10;;;5.10;99.90;;;;;;4839619;29;20248;-57
2022/04/05 08:38:03;;;;;;;7.22;2.80;;;5.10;99.90;;;;;;4848782;29;20608;-56
2022/04/05 08:40:34;;;;;;;7.15;2.70;;;5.10;99.90;;;;;;4846554;29;20232;-58
2022/04/05 08:43:05;;;;;;;8.00;2.60;;;5.10;99.90;;;;;;4849711;29;20306;-58
2022/04/05 08:45:38;;;;;;;5.97;1.80;;;5.20;99.90;;;;;;4847296;29;20213;-58
2022/04/05 08:48:10;;;;;;;6.20;2.50;;;5.30;99.90;;;;;;4842414;29;20220;-57
2022/04/05 08:50:41;;;;;;;5.88;2.15;;;5.30;99.90;;;;;;4847467;29;20221;-56
2022/04/05 08:53:12;;;;;;;10.02;3.10;;;5.30;99.90;;;;;;4847147;29;20217;-59
2022/04/05 08:55:43;;;;;;;5.55;2.72;;;5.40;99.90;;;;;;4844519;29;20217;-58
2022/04/05 08:58:14;;;;;;;4.28;2.95;;;5.30;99.90;;;;;;4840455;29;20697;-58
2022/04/05 09:00:47;;;;;;;4.32;2.55;;;5.20;99.90;;;;;;4844291;29;20217;-57
2022/04/05 09:03:18;;;;;;;7.55;2.80;;;5.20;99.90;;;;;;4843009;29;20677;-58
2022/04/05 09:05:50;;;;;;;6.43;2.45;;;5.20;99.90;;;;;;4846309;29;20210;-58
2022/04/05 09:08:23;;;;;;;12.90;2.95;;;5.20;99.90;;;;;;4850675;29;20316;-57
2022/04/05 09:10:56;;;;;;;5.07;2.50;;;5.20;99.90;;;;;;4847114;29;20229;-57
2022/04/05 09:13:28;;;;;;;8.63;2.80;;;5.30;99.90;;;;;;4840289;29;20214;-58
2022/04/05 09:16:04;;;;;;;9.80;2.90;;;5.20;99.90;;;;;;4845504;29;20233;-57
2022/04/05 09:18:37;;;;;;;8.45;3.00;;;5.20;99.90;;;;;;4851946;29;20213;-54
2022/04/05 09:21:10;;;;;;;7.30;2.83;;;5.10;99.90;;;;;;4850502;29;20205;-57
2022/04/05 09:23:42;;;;;;;3.20;2.33;;;5.10;99.90;;;;;;4837255;29;20699;-57
2022/04/05 09:26:17;;;;;;;6.43;2.10;;;5.10;99.90;;;;;;4846896;29;20202;-55
2022/04/05 09:28:49;;;;;;;8.73;2.50;;;5.10;99.90;;;;;;4840538;29;20221;-57
2022/04/05 09:31:24;;;;;;;7.20;2.17;;;5.10;99.90;;;;;;4850951;29;20209;-57
2022/04/05 09:34:08;;;;;;;4.82;2.40;;;5.10;99.90;;;;;;4840293;29;20216;-57
2022/04/05 09:36:41;;;;;;;5.25;2.40;;;5.00;99.90;;;;;;4842078;29;20271;-57
2022/04/05 09:39:19;;;;;;;5.38;2.03;;;5.10;99.90;;;;;;4838465;29;20263;-58
2022/04/05 09:41:53;;;;;;;8.25;2.13;;;5.00;99.90;;;;;;4850837;29;20216;-57
2022/04/05 09:44:29;;;;;;;6.65;2.05;;;5.00;99.90;;;;;;4848528;29;20201;-58
2022/04/05 09:47:10;;;;;;;5.80;2.95;;;5.00;99.90;;;;;;4850721;29;20213;-58
2022/04/05 09:49:42;;;;;;;5.15;2.70;;;4.90;99.90;;;;;;4850375;29;20209;-58
2022/04/05 09:52:26;;;;;;;5.35;3.00;;;4.90;99.90;;;;;;4850836;29;20210;-58
2022/04/05 09:55:09;;;;;;;9.27;3.42;;;4.90;99.90;;;;;;4851243;29;20209;-57
2022/04/05 09:57:40;;;;;;;6.70;2.70;;;4.90;99.90;;;;;;4847344;29;20241;-54
2022/04/05 10:00:13;;;;;;;9.57;3.20;;;4.90;99.90;;;;;;4847514;29;20198;-58
2022/04/05 10:03:06;;;;;;;7.35;3.08;;;4.90;99.90;;;;;;4848323;29;20205;-57
2022/04/05 10:05:38;;;;;;;8.65;2.85;;;4.90;99.90;;;;;;4851536;29;20202;-57
2022/04/05 10:08:09;;;;;;;6.28;2.83;;;4.90;99.90;;;;;;4847422;29;20247;-57
2022/04/05 10:10:40;;;;;;;4.95;1.98;;;4.90;99.90;;;;;;4839586;29;20217;-58
2022/04/05 10:13:11;;;;;;;6.35;2.85;;;4.80;99.90;;;;;;4849764;29;20208;-58
2022/04/05 10:15:44;;;;;;;7.68;2.28;;;4.90;99.90;;;;;;4848170;29;20217;-57
2022/04/05 10:18:18;;;;;;;7.53;1.65;;;5.00;99.90;;;;;;4844767;29;20228;-55
2022/04/05 10:20:50;;;;;;;4.70;2.50;;;5.00;99.90;;;;;;4844549;29;20249;-58
2022/04/05 10:23:23;;;;;;;8.32;2.33;;;5.00;99.90;;;;;;4840300;29;20213;-56
2022/04/05 10:25:55;;;;;;;5.55;2.80;;;5.00;99.90;;;;;;4844129;29;20273;-58
2022/04/05 10:28:30;;;;;;;5.40;1.83;;;5.00;99.90;;;;;;4842334;29;20223;-57
2022/04/05 10:31:13;;;;;;;4.00;2.03;;;5.00;99.90;;;;;;4840295;29;20209;-57
2022/04/05 10:33:56;;;;;;;9.52;2.10;;;5.00;99.90;;;;;;4841676;29;20220;-57
2022/04/05 10:36:28;;;;;;;4.13;2.17;;;5.10;99.90;;;;;;4844680;29;20682;-61
2022/04/05 10:39:18;;;;;;;6.13;2.10;;;5.10;99.90;;;;;;4849990;29;20526;-56
2022/04/05 10:42:20;;;;;;;7.30;1.73;;;5.10;99.90;;;;;;4850111;29;20209;-56
2022/04/05 10:44:54;;;;;;;2.90;1.98;;;5.10;99.90;;;;;;4836339;29;20244;-58
2022/04/05 10:47:24;;;;;;;5.85;1.85;;;5.10;99.90;;;;;;4851095;29;20221;-57
2022/04/05 10:50:21;;;;;;;11.05;2.65;;;5.10;99.90;;;;;;4849091;29;20206;-55
2022/04/05 10:53:12;;;;;;;11.65;3.60;;;5.10;99.90;;;;;;4842960;29;20213;-58
2022/04/05 10:56:20;;;;;;;9.88;2.33;;;5.20;99.90;;;;;;4844820;29;20221;-56
2022/04/05 10:59:28;;;;;;;5.60;2.55;;;5.30;99.90;;;;;;4793331;30;20207;-58
2022/04/05 11:01:59;;;;;;;7.13;2.95;;;5.30;99.90;;;;;;4782041;30;20216;-57
2022/04/05 11:04:35;;;;;;;8.25;2.42;;;5.50;99.90;;;;;;4791033;30;20227;-58
2022/04/05 11:07:12;;;;;;;6.88;2.53;;;5.50;99.90;;;;;;4787663;30;20253;-58
2022/04/05 11:09:51;;;;;;;4.50;1.70;;;5.60;99.90;;;;;;4786086;30;20206;-57
2022/04/05 11:12:24;;;;;;;7.65;2.33;;;5.60;99.90;;;;;;4787523;30;20252;-58
2022/04/05 11:14:56;;;;;;;9.20;2.40;;;5.70;99.90;;;;;;4794739;29;20207;-58
2022/04/05 11:17:28;;;;;;;2.45;1.55;;;5.70;99.90;;;;;;4793534;30;20234;-57
2022/04/05 11:20:01;;;;;;;6.32;1.85;;;5.60;99.90;;;;;;4792914;30;20224;-56
2022/04/05 11:22:36;;;;;;;7.28;2.28;;;5.50;99.90;;;;;;4795243;30;20207;-58
2022/04/05 11:25:09;;;;;;;10.05;2.80;;;5.50;99.90;;;;;;4793576;30;20191;-58
2022/04/05 11:27:45;;;;;;;3.88;1.92;;;5.50;99.90;;;;;;4795791;30;20714;-58
2022/04/05 11:30:58;;;;;;;7.55;2.40;;;5.40;99.90;;;;;;4796430;30;20644;-59
2022/04/05 11:33:46;;;;;;;4.78;2.10;;;5.50;99.90;;;;;;4800324;29;20212;-56
2022/04/05 11:36:21;;;;;;;5.82;2.15;;;5.50;99.90;;;;;;4853625;29;20213;-57
2022/04/05 11:38:57;;;;;;;6.40;2.67;;;5.50;99.90;;;;;;4853465;29;20227;-56
2022/04/05 11:41:29;;;;;;;8.07;2.47;;;5.40;99.90;;;;;;4853296;29;20220;-56
2022/04/05 11:44:02;;;;;;;5.57;1.63;;;5.50;99.90;;;;;;4838214;29;20218;-58
2022/04/05 11:46:37;;;;;;;4.85;1.67;;;5.50;99.90;;;;;;4852647;29;20205;-57
2022/04/05 11:49:11;;;;;;;5.78;2.08;;;5.50;99.90;;;;;;4853423;29;20213;-57
2022/04/05 11:51:47;;;;;;;5.25;2.80;;;5.60;99.90;;;;;;4841798;29;20213;-57
2022/04/05 11:54:24;;;;;;;9.05;2.13;;;5.60;99.90;;;;;;4844319;29;20211;-57
2022/04/05 11:56:55;;;;;;;7.97;3.08;;;5.70;99.90;;;;;;4852948;29;20225;-56
2022/04/05 11:59:29;;;;;;;5.28;2.10;;;5.70;99.90;;;;;;4852114;29;20224;-56
2022/04/05 12:02:00;;;;;;;8.57;2.00;;;5.70;99.90;;;;;;4851291;29;20317;-57
2022/04/05 12:04:33;;;;;;;6.45;2.45;;;5.80;99.90;;;;;;4853097;29;20209;-57
2022/04/05 12:07:04;;;;;;;4.18;1.88;;;5.80;99.90;;;;;;4851985;29;20256;-56
2022/04/05 12:09:36;;;;;;;2.88;1.85;;;5.80;99.90;;;;;;4841639;29;20206;-57
2022/04/05 12:12:08;;;;;;;3.20;1.52;;;5.90;99.90;;;;;;4849082;29;20232;-58
2022/04/05 12:14:39;;;;;;;6.18;2.17;;;5.90;99.90;;;;;;4844289;29;20537;-57
2022/04/05 12:17:10;;;;;;;3.22;1.85;;;5.90;99.90;;;;;;4841087;29;20312;-55
2022/04/05 12:19:42;;;;;;;11.20;2.20;;;5.90;99.90;;;;;;4842943;29;20202;-58
2022/04/05 12:22:16;;;;;;;4.35;2.28;;;5.90;99.90;;;;;;4844873;29;20205;-55
2022/04/05 12:24:53;;;;;;;3.60;1.80;;;5.90;99.90;;;;;;4852622;29;20559;-58
2022/04/05 12:27:25;;;;;;;4.90;2.30;;;5.90;99.90;;;;;;4850387;29;20211;-57
2022/04/05 12:30:00;;;;;;;4.88;1.98;;;5.90;99.90;;;;;;4842981;29;20265;-57
2022/04/05 12:32:36;;;;;;;6.80;2.38;;;5.90;99.90;;;;;;4847062;29;20220;-57
2022/04/05 12:35:08;;;;;;;2.15;1.70;;;5.90;99.90;;;;;;4840201;29;20297;-58
2022/04/05 12:37:39;;;;;;;6.72;2.05;;;5.90;99.90;;;;;;4846509;29;20217;-57
2022/04/05 12:40:27;;;;;;;3.15;2.03;;;5.80;99.90;;;;;;4852330;29;20217;-58
2022/04/05 12:42:58;;;;;;;9.13;2.15;;;5.80;99.90;;;;;;4839936;29;20210;-57
2022/04/05 12:45:31;;;;;;;6.25;2.30;;;5.70;99.90;;;;;;4841318;29;20220;-57
2022/04/05 12:48:13;;;;;;;4.13;1.67;;;5.60;99.90;;;;;;4841655;29;20220;-58
2022/04/05 12:50:45;;;;;;;7.30;1.70;;;5.50;99.90;;;;;;4842045;29;20206;-57
2022/04/05 12:53:26;;;;;;;9.20;2.25;;;5.40;99.90;;;;;;4838295;29;20317;-58
2022/04/05 12:56:00;;;;;;;3.67;1.77;;;5.40;99.90;;;;;;4842263;29;20210;-58
2022/04/05 12:58:46;;;;;;;4.30;1.75;;;5.30;99.90;;;;;;4843954;29;20257;-57
2022/04/05 13:01:25;;;;;;;6.00;1.73;;;5.20;99.90;;;;;;4849619;29;20217;-57
2022/04/05 13:04:01;;;;;;;4.07;1.40;;;5.30;99.90;;;;;;4846834;29;20227;-57
2022/04/05 13:06:33;;;;;;;9.38;1.95;;;5.20;99.90;;;;;;4849781;29;20237;-53
2022/04/05 13:09:10;;;;;;;7.07;2.53;;;5.20;99.90;;;;;;4838198;29;20225;-57
2022/04/05 13:11:42;;;;;;;5.72;2.60;;;5.20;99.90;;;;;;4850377;29;20197;-57
2022/04/05 13:14:15;;;;;;;4.13;2.15;;;5.10;99.90;;;;;;4843631;29;20545;-55
2022/04/05 13:16:48;;;;;;;6.00;3.00;;;5.10;99.90;;;;;;4841015;29;20221;-56
2022/04/05 13:19:21;;;;;;;6.10;2.05;;;5.20;99.90;;;;;;4844852;29;20253;-59
2022/04/05 13:21:52;;;;;;;4.88;1.75;;;5.20;99.90;;;;;;4850265;29;20680;-58
2022/04/05 13:24:26;;;;;;;4.35;1.90;;;5.30;99.90;;;;;;4845829;29;20213;-58
2022/04/05 13:27:04;;;;;;;4.30;1.40;;;5.20;99.90;;;;;;4847325;29;20216;-56